Weather at Borås Airport

Public forecast

Using degrees Celsius for public forecast. Weather courtesy of forecast.io.

Closest aviation weather report (METAR) to Borås Airport

Closest report is Gothenburg-Landvetter Airport, 18.3 nm (33.8 km) W. Retrieved 2022/05/18 00:50 UTC (18 minutes ago):

ESGG 180050Z 17009KT CAVOK 07/01 Q1026

Closest aviation forecast (TAF) to Borås Airport

Closest forecast is Gothenburg-Landvetter Airport, 18.3 nm (33.8 km) W. Retrieved 2022-05-18 00:15 UTC (53 minutes ago):

TAF TAF ESGG 172330Z 1800/1824 14005KT CAVOK